Time;durP1;ratioP1;P1;durP2;ratioP2;P2;SDS_P1;SDS_P2;PMS_P1;PMS_P2;Temp;Humidity;BMP_temperature;BMP_pressure;BME280_temperature;BME280_humidity;BME280_pressure;Samples;Min_cycle;Max_cycle;Signal;HPM_P1;HPM_P2
2021/03/27 00:02:00;;;;;;;3.17;2.30;;;20.00;48.60;;;;;;7712029;23;20012;-65
2021/03/27 00:05:17;;;;;;;3.00;2.20;;;20.00;48.60;;;;;;7711555;23;20448;-65
2021/03/27 00:08:49;;;;;;;2.65;2.08;;;20.00;48.60;;;;;;7711665;23;20008;-65
2021/03/27 00:12:11;;;;;;;3.25;2.40;;;20.00;48.60;;;;;;7711281;23;20074;-66
2021/03/27 00:15:22;;;;;;;3.13;2.83;;;20.00;48.60;;;;;;7711543;23;20001;-65
2021/03/27 00:18:51;;;;;;;2.55;2.08;;;20.00;48.60;;;;;;7711536;23;20012;-65
2021/03/27 00:21:58;;;;;;;2.55;2.13;;;19.90;49.30;;;;;;7711654;23;20008;-65
2021/03/27 00:25:10;;;;;;;3.00;2.33;;;20.00;48.60;;;;;;7711502;23;20011;-67
2021/03/27 00:28:29;;;;;;;2.35;2.08;;;20.00;48.60;;;;;;7711033;23;20016;-65
2021/03/27 00:31:43;;;;;;;2.47;2.15;;;20.00;48.60;;;;;;7711402;23;20373;-66
2021/03/27 00:34:49;;;;;;;2.92;2.30;;;20.00;48.70;;;;;;7711380;23;20001;-65
2021/03/27 00:37:50;;;;;;;3.10;2.33;;;20.00;48.60;;;;;;7711187;23;20000;-66
2021/03/27 00:40:53;;;;;;;2.95;2.30;;;20.00;48.60;;;;;;7711697;23;20012;-65
2021/03/27 00:43:59;;;;;;;3.30;2.60;;;20.00;48.60;;;;;;7711361;23;20051;-65
2021/03/27 00:47:02;;;;;;;2.55;2.08;;;20.00;48.60;;;;;;7710818;23;20542;-66
2021/03/27 00:50:14;;;;;;;2.30;1.90;;;20.00;48.60;;;;;;7711259;23;20020;-65
2021/03/27 00:53:45;;;;;;;2.50;1.98;;;20.00;48.60;;;;;;7711052;23;19997;-65
2021/03/27 00:57:07;;;;;;;2.97;2.35;;;20.00;48.60;;;;;;7711209;23;20001;-66
2021/03/27 01:00:29;;;;;;;2.72;2.25;;;20.00;48.60;;;;;;7711181;23;20005;-66
2021/03/27 01:03:36;;;;;;;2.38;1.95;;;20.00;48.60;;;;;;7710412;23;20027;-65
2021/03/27 01:06:53;;;;;;;2.60;2.35;;;20.00;48.70;;;;;;7711146;23;20436;-65
2021/03/27 01:10:21;;;;;;;2.60;2.10;;;20.00;48.60;;;;;;7711097;23;20015;-66
2021/03/27 01:13:35;;;;;;;2.72;2.30;;;20.00;48.70;;;;;;7698890;23;20016;-65
2021/03/27 01:16:40;;;;;;;2.95;2.40;;;20.00;48.70;;;;;;7711143;23;20058;-65
2021/03/27 01:19:47;;;;;;;;;;;20.00;48.60;;;;;;7711558;23;20005;-65
2021/03/27 01:22:49;;;;;;;2.65;2.33;;;20.00;48.70;;;;;;7710356;23;19970;-65
2021/03/27 01:25:50;;;;;;;2.47;2.05;;;20.00;48.70;;;;;;7710950;23;20310;-65
2021/03/27 01:29:05;;;;;;;2.35;2.05;;;20.00;48.60;;;;;;7710901;23;20015;-65
2021/03/27 01:32:16;;;;;;;2.53;2.05;;;20.00;48.60;;;;;;7710969;23;20076;-65
2021/03/27 01:35:24;;;;;;;3.67;2.38;;;20.00;48.60;;;;;;7711122;23;20309;-65
2021/03/27 01:38:41;;;;;;;3.00;2.53;;;20.00;48.60;;;;;;7710714;23;20325;-65
2021/03/27 01:42:08;;;;;;;3.65;2.50;;;20.00;48.60;;;;;;7710475;23;20348;-66
2021/03/27 01:45:48;;;;;;;2.47;2.10;;;20.00;48.70;;;;;;7711695;23;20019;-65
2021/03/27 01:49:03;;;;;;;3.13;2.10;;;20.00;48.60;;;;;;7675502;23;20017;-65
2021/03/27 01:52:23;;;;;;;;;;;20.00;48.70;;;;;;7711437;23;20004;-65
2021/03/27 01:55:32;;;;;;;2.35;2.13;;;19.90;48.60;;;;;;7710331;23;20286;-65
2021/03/27 01:58:59;;;;;;;2.35;2.10;;;19.90;48.60;;;;;;7710218;23;20004;-65
2021/03/27 02:02:13;;;;;;;3.47;2.30;;;20.00;48.70;;;;;;7710465;23;20013;-66
2021/03/27 02:05:24;;;;;;;2.72;1.98;;;19.90;48.60;;;;;;7710743;23;20447;-65
2021/03/27 02:08:45;;;;;;;2.20;1.95;;;20.00;48.70;;;;;;7710554;23;20083;-65
2021/03/27 02:11:52;;;;;;;2.63;2.20;;;19.90;48.60;;;;;;7710476;23;20471;-65
2021/03/27 02:15:05;;;;;;;2.63;2.00;;;20.00;48.70;;;;;;7711824;23;20005;-65
2021/03/27 02:18:23;;;;;;;2.70;2.03;;;19.90;48.60;;;;;;7712020;23;20397;-65
2021/03/27 02:21:49;;;;;;;2.55;2.03;;;19.90;48.60;;;;;;7713034;23;20012;-65
2021/03/27 02:24:58;;;;;;;2.67;2.17;;;20.00;48.60;;;;;;7713053;23;20011;-65
2021/03/27 02:28:11;;;;;;;2.67;1.92;;;20.00;48.60;;;;;;7713150;23;20009;-66
2021/03/27 02:31:20;;;;;;;2.42;2.03;;;20.00;48.60;;;;;;7713052;23;20004;-66
2021/03/27 02:34:36;;;;;;;3.85;2.30;;;19.90;48.60;;;;;;7712462;23;20047;-66
2021/03/27 02:38:08;;;;;;;2.80;2.10;;;19.90;48.60;;;;;;7713000;23;20011;-65
2021/03/27 02:41:23;;;;;;;2.65;1.90;;;19.90;48.60;;;;;;7712711;23;20009;-66
2021/03/27 02:44:33;;;;;;;3.13;2.03;;;19.90;48.60;;;;;;7710996;23;20012;-66
2021/03/27 02:48:02;;;;;;;2.15;1.95;;;20.00;48.70;;;;;;7712635;23;20016;-66
2021/03/27 02:51:13;;;;;;;2.55;2.00;;;19.90;48.60;;;;;;7712663;23;20001;-66
2021/03/27 02:54:42;;;;;;;2.08;1.77;;;19.90;48.60;;;;;;7712189;23;20005;-65
2021/03/27 02:58:10;;;;;;;2.53;1.98;;;19.90;48.60;;;;;;7712469;23;20012;-65
2021/03/27 03:01:29;;;;;;;3.25;2.25;;;19.90;48.60;;;;;;7712552;23;20009;-65
2021/03/27 03:04:36;;;;;;;2.22;2.00;;;19.90;48.60;;;;;;7710849;23;20036;-65
2021/03/27 03:08:07;;;;;;;2.20;1.90;;;19.90;48.60;;;;;;7712390;23;20539;-65
2021/03/27 03:11:23;;;;;;;2.25;1.90;;;19.90;48.60;;;;;;7711906;23;20004;-66
2021/03/27 03:14:40;;;;;;;;;;;19.90;48.60;;;;;;7712981;23;20000;-65
2021/03/27 03:18:04;;;;;;;2.03;1.83;;;19.90;48.60;;;;;;7712521;23;20182;-65
2021/03/27 03:21:25;;;;;;;2.38;1.90;;;19.90;48.60;;;;;;7712231;23;20073;-65
2021/03/27 03:24:43;;;;;;;2.03;1.80;;;19.90;48.60;;;;;;7712184;23;20088;-65
2021/03/27 03:28:10;;;;;;;3.00;2.10;;;19.90;48.60;;;;;;7712363;23;20008;-65
2021/03/27 03:31:21;;;;;;;2.13;1.85;;;19.90;48.60;;;;;;7712184;23;20005;-65
2021/03/27 03:34:34;;;;;;;3.08;2.10;;;19.90;48.60;;;;;;7712827;23;20016;-65
2021/03/27 03:37:58;;;;;;;2.00;1.77;;;19.90;48.60;;;;;;7712194;23;20009;-65
2021/03/27 03:41:31;;;;;;;2.30;2.00;;;19.90;48.60;;;;;;7712049;23;20348;-65
2021/03/27 03:44:54;;;;;;;2.20;1.90;;;19.90;48.60;;;;;;7712216;23;20365;-65
2021/03/27 03:48:12;;;;;;;2.03;1.80;;;19.90;48.60;;;;;;7711517;23;20021;-66
2021/03/27 03:51:23;;;;;;;2.47;1.88;;;19.90;48.60;;;;;;7712110;23;20040;-65
2021/03/27 03:54:41;;;;;;;2.72;2.10;;;19.90;48.60;;;;;;7712038;23;20000;-66
2021/03/27 03:58:09;;;;;;;2.28;2.03;;;19.90;48.60;;;;;;7711814;23;20004;-65
2021/03/27 04:01:33;;;;;;;2.15;1.75;;;19.90;48.50;;;;;;7712589;23;20047;-66
2021/03/27 04:04:43;;;;;;;2.10;1.85;;;19.90;48.50;;;;;;7711585;23;20182;-65
2021/03/27 04:07:57;;;;;;;2.78;1.95;;;19.90;48.60;;;;;;7711724;23;20000;-65
2021/03/27 04:11:02;;;;;;;2.05;1.80;;;19.90;48.50;;;;;;7711867;23;20004;-65
2021/03/27 04:14:12;;;;;;;2.75;2.00;;;19.90;48.60;;;;;;7712158;23;20008;-65
2021/03/27 04:17:41;;;;;;;2.15;1.95;;;19.90;48.50;;;;;;7711569;23;20008;-65
2021/03/27 04:20:46;;;;;;;2.47;2.20;;;19.90;48.60;;;;;;7711399;23;20467;-65
2021/03/27 04:24:01;;;;;;;2.40;1.95;;;19.90;48.50;;;;;;7711420;23;20012;-66
2021/03/27 04:27:19;;;;;;;2.40;1.70;;;19.90;48.50;;;;;;7711540;23;20008;-65
2021/03/27 04:30:28;;;;;;;2.13;1.70;;;19.90;48.50;;;;;;7711589;23;20004;-65
2021/03/27 04:33:49;;;;;;;2.25;1.75;;;19.90;48.50;;;;;;7711624;23;20008;-65
2021/03/27 04:37:05;;;;;;;2.30;2.00;;;19.90;48.50;;;;;;7711099;23;20491;-65
2021/03/27 04:40:25;;;;;;;;;;;19.90;48.50;;;;;;7711889;23;20005;-64
2021/03/27 04:43:31;;;;;;;2.10;1.80;;;19.90;48.50;;;;;;7711340;23;20428;-65
2021/03/27 04:46:51;;;;;;;2.72;1.90;;;19.90;48.60;;;;;;7711882;23;20004;-66
2021/03/27 04:50:09;;;;;;;2.33;1.90;;;19.90;48.50;;;;;;7711341;23;20495;-65
2021/03/27 04:53:25;;;;;;;2.33;1.85;;;19.90;48.50;;;;;;7711736;23;20155;-65
2021/03/27 04:56:43;;;;;;;2.20;1.77;;;19.90;48.50;;;;;;7711182;23;20369;-65
2021/03/27 05:00:36;;;;;;;2.15;1.95;;;19.90;48.60;;;;;;7711028;23;20012;-66
2021/03/27 05:03:46;;;;;;;2.15;1.55;;;19.90;48.50;;;;;;7711000;23;20008;-65
2021/03/27 05:06:55;;;;;;;1.73;1.63;;;19.90;48.50;;;;;;7711173;23;20067;-66
2021/03/27 05:10:15;;;;;;;2.20;1.83;;;19.90;48.50;;;;;;7711325;23;20001;-66
2021/03/27 05:13:24;;;;;;;2.40;1.75;;;19.90;48.50;;;;;;7711006;23;20000;-65
2021/03/27 05:16:31;;;;;;;2.08;1.67;;;19.90;48.50;;;;;;7710857;23;20436;-65
2021/03/27 05:19:59;;;;;;;2.67;1.95;;;19.90;48.50;;;;;;7710955;23;20062;-65
2021/03/27 05:23:48;;;;;;;2.38;2.08;;;19.90;48.50;;;;;;7710824;23;20666;-65
2021/03/27 05:27:10;;;;;;;2.05;1.70;;;19.90;48.50;;;;;;7710694;23;20009;-66
2021/03/27 05:30:38;;;;;;;1.70;1.60;;;19.90;48.50;;;;;;7710998;23;20020;-65
2021/03/27 05:34:03;;;;;;;2.85;1.90;;;19.90;48.50;;;;;;7711007;23;20007;-65
2021/03/27 05:37:48;;;;;;;1.70;1.60;;;19.90;48.50;;;;;;7710892;23;20027;-65
2021/03/27 05:41:21;;;;;;;2.15;1.95;;;19.90;48.50;;;;;;7598706;23;20006;-65
2021/03/27 05:44:43;;;;;;;2.55;1.75;;;19.90;48.50;;;;;;7711661;23;20004;-65
2021/03/27 05:48:11;;;;;;;1.88;1.60;;;19.90;48.50;;;;;;7710740;23;20375;-65
2021/03/27 05:51:35;;;;;;;2.03;1.70;;;19.90;48.50;;;;;;7713265;23;20521;-65
2021/03/27 05:55:06;;;;;;;3.10;1.70;;;19.90;48.50;;;;;;7713245;23;20001;-65
2021/03/27 05:58:28;;;;;;;2.20;1.80;;;19.90;48.50;;;;;;7713377;23;20332;-65
2021/03/27 06:01:51;;;;;;;2.58;2.00;;;19.90;48.50;;;;;;7713311;23;20001;-65
2021/03/27 06:05:30;;;;;;;2.42;1.80;;;19.90;48.40;;;;;;7713037;23;20004;-65
2021/03/27 06:08:58;;;;;;;1.67;1.50;;;19.90;48.50;;;;;;7713073;23;20061;-65
2021/03/27 06:12:49;;;;;;;2.13;1.83;;;19.90;48.50;;;;;;7712971;23;20004;-66
2021/03/27 06:16:17;;;;;;;2.28;1.80;;;19.90;48.50;;;;;;7674373;23;20092;-65
2021/03/27 06:19:38;;;;;;;1.65;1.55;;;19.90;48.50;;;;;;7712879;23;20068;-66
2021/03/27 06:22:42;;;;;;;1.90;1.70;;;19.90;48.50;;;;;;7712902;23;20016;-66
2021/03/27 06:26:19;;;;;;;2.10;1.90;;;19.90;48.40;;;;;;7712854;23;20005;-65
2021/03/27 06:29:43;;;;;;;1.80;1.60;;;19.90;48.50;;;;;;7712367;23;20000;-66
2021/03/27 06:32:50;;;;;;;2.03;1.73;;;19.90;48.50;;;;;;7712806;23;20008;-65
2021/03/27 06:36:20;;;;;;;2.50;1.98;;;19.90;48.50;;;;;;7712772;23;20014;-65
2021/03/27 06:39:26;;;;;;;1.90;1.60;;;19.90;48.40;;;;;;7712831;23;20012;-65
2021/03/27 06:43:00;;;;;;;1.75;1.60;;;19.90;48.40;;;;;;7713130;23;20070;-65
2021/03/27 06:46:22;;;;;;;3.30;1.67;;;19.90;48.40;;;;;;7712899;23;20012;-65
2021/03/27 06:50:02;;;;;;;1.95;1.70;;;19.90;48.40;;;;;;7712617;23;20021;-65
2021/03/27 06:53:19;;;;;;;2.25;1.70;;;19.90;48.50;;;;;;7710786;23;20008;-65
2021/03/27 06:56:36;;;;;;;1.83;1.58;;;19.90;48.50;;;;;;7712450;23;20004;-65
2021/03/27 07:00:10;;;;;;;2.05;1.73;;;19.90;48.50;;;;;;7712144;23;20103;-65
2021/03/27 07:03:30;;;;;;;1.50;1.40;;;19.90;48.50;;;;;;7712395;23;20028;-66
2021/03/27 07:06:42;;;;;;;1.85;1.55;;;19.90;48.40;;;;;;7712221;23;20044;-65
2021/03/27 07:10:01;;;;;;;2.25;1.80;;;19.90;48.40;;;;;;7712614;23;20036;-65
2021/03/27 07:13:36;;;;;;;1.90;1.60;;;19.90;48.50;;;;;;7710825;23;20050;-66
2021/03/27 07:17:02;;;;;;;1.95;1.50;;;19.90;48.40;;;;;;7712286;23;20004;-66
2021/03/27 07:20:40;;;;;;;2.05;1.80;;;19.90;48.40;;;;;;7711954;23;20008;-65
2021/03/27 07:24:05;;;;;;;1.65;1.45;;;19.90;48.40;;;;;;7711812;23;20016;-65
2021/03/27 07:27:37;;;;;;;1.70;1.52;;;19.90;48.40;;;;;;7712494;23;20008;-66
2021/03/27 07:31:08;;;;;;;1.92;1.65;;;19.90;48.40;;;;;;7711930;23;20001;-66
2021/03/27 07:34:40;;;;;;;1.75;1.50;;;19.90;48.40;;;;;;7712134;23;20005;-65
2021/03/27 07:38:18;;;;;;;2.40;1.80;;;19.90;48.40;;;;;;7712049;23;20004;-65
2021/03/27 07:41:51;;;;;;;2.42;1.65;;;19.90;48.50;;;;;;7711449;23;20005;-65
2021/03/27 07:45:00;;;;;;;1.65;1.50;;;19.90;48.40;;;;;;7711707;23;20004;-65
2021/03/27 07:48:38;;;;;;;2.50;1.60;;;19.90;48.40;;;;;;7711716;23;20048;-65
2021/03/27 07:52:10;;;;;;;2.58;1.80;;;19.90;48.50;;;;;;7711805;23;20087;-65
2021/03/27 07:55:32;;;;;;;2.72;1.73;;;19.90;48.50;;;;;;7712206;23;20005;-65
2021/03/27 07:58:56;;;;;;;2.00;1.77;;;19.90;48.40;;;;;;7711323;23;20005;-66
2021/03/27 08:02:09;;;;;;;2.53;1.70;;;19.90;48.40;;;;;;7711684;23;20016;-65
2021/03/27 08:05:56;;;;;;;1.58;1.40;;;19.90;48.40;;;;;;7711837;23;20001;-66
2021/03/27 08:09:37;;;;;;;2.22;1.98;;;19.90;48.40;;;;;;7712227;23;20008;-66
2021/03/27 08:12:46;;;;;;;1.52;1.27;;;20.00;48.50;;;;;;7711169;23;20349;-66
2021/03/27 08:16:07;;;;;;;2.13;1.70;;;19.90;48.40;;;;;;7711765;23;20429;-65
2021/03/27 08:19:51;;;;;;;2.20;1.70;;;19.90;48.50;;;;;;7711894;23;20031;-65
2021/03/27 08:23:03;;;;;;;1.75;1.40;;;19.90;48.50;;;;;;7711192;23;20008;-65
2021/03/27 08:26:45;;;;;;;2.08;1.65;;;19.90;48.50;;;;;;7711794;23;20004;-65
2021/03/27 08:30:23;;;;;;;1.60;1.50;;;19.90;48.50;;;;;;7711516;23;20079;-65
2021/03/27 08:33:40;;;;;;;1.80;1.58;;;20.00;48.50;;;;;;7711193;23;20057;-66
2021/03/27 08:36:45;;;;;;;2.35;1.65;;;20.00;48.50;;;;;;7711031;23;20000;-65
2021/03/27 08:40:11;;;;;;;2.42;1.65;;;19.90;48.40;;;;;;7711495;23;20425;-65
2021/03/27 08:43:25;;;;;;;;;;;20.00;48.50;;;;;;7711718;23;20487;-65
2021/03/27 08:46:56;;;;;;;2.03;1.58;;;20.00;48.50;;;;;;7711523;23;19982;-66
2021/03/27 08:50:12;;;;;;;1.98;1.50;;;19.90;48.40;;;;;;7710927;23;20436;-66
2021/03/27 08:53:27;;;;;;;;;;;19.90;48.40;;;;;;7711255;23;20009;-65
2021/03/27 08:56:56;;;;;;;3.15;1.38;;;19.90;48.50;;;;;;7711212;23;19907;-65
2021/03/27 09:00:18;;;;;;;1.65;1.20;;;19.90;48.50;;;;;;7711119;23;20001;-66
2021/03/27 09:03:21;;;;;;;1.70;1.35;;;19.90;48.50;;;;;;7711169;23;20012;-65
2021/03/27 09:06:30;;;;;;;2.10;1.40;;;19.90;48.50;;;;;;7711171;23;20005;-65
2021/03/27 09:09:49;;;;;;;1.30;1.17;;;20.00;48.60;;;;;;7711437;23;20245;-65
2021/03/27 09:13:05;;;;;;;1.75;1.30;;;20.00;49.20;;;;;;7710443;23;20083;-66
2021/03/27 09:16:25;;;;;;;2.05;1.42;;;20.00;48.50;;;;;;7711308;23;20028;-65
2021/03/27 09:19:37;;;;;;;2.03;1.33;;;20.00;48.50;;;;;;7711061;23;20051;-65
2021/03/27 09:23:34;;;;;;;2.08;1.33;;;20.00;48.50;;;;;;7711254;23;20013;-66
2021/03/27 09:26:47;;;;;;;1.88;1.55;;;19.90;48.50;;;;;;7596443;23;20093;-65
2021/03/27 09:30:06;;;;;;;1.70;1.45;;;19.90;48.40;;;;;;7609889;23;20008;-66
2021/03/27 09:33:27;;;;;;;1.75;1.30;;;20.00;48.50;;;;;;7710761;23;20043;-65
2021/03/27 09:36:34;;;;;;;2.15;1.20;;;20.00;48.50;;;;;;7711009;23;20350;-65
2021/03/27 09:40:15;;;;;;;1.20;1.10;;;20.00;48.50;;;;;;7710686;23;20436;-65
2021/03/27 09:43:54;;;;;;;1.88;1.40;;;20.00;48.50;;;;;;7660068;23;20021;-65
2021/03/27 09:46:55;;;;;;;1.30;1.15;;;20.00;48.50;;;;;;7710556;23;20008;-66
2021/03/27 09:50:16;;;;;;;1.40;1.30;;;20.00;48.50;;;;;;7711332;23;20020;-65
2021/03/27 09:53:24;;;;;;;1.10;1.00;;;20.00;48.60;;;;;;7709186;23;20024;-65
2021/03/27 09:56:32;;;;;;;1.40;1.13;;;20.00;48.50;;;;;;7710807;23;20071;-65
2021/03/27 09:59:44;;;;;;;1.27;1.17;;;20.00;48.50;;;;;;7710773;23;20004;-66
2021/03/27 10:03:08;;;;;;;1.17;0.90;;;20.00;48.50;;;;;;7711377;23;20016;-66
2021/03/27 10:06:32;;;;;;;1.95;1.15;;;20.00;48.50;;;;;;7709656;23;20059;-65
2021/03/27 10:10:01;;;;;;;1.85;1.27;;;20.00;48.50;;;;;;7711440;23;20011;-65
2021/03/27 10:13:27;;;;;;;1.70;1.23;;;20.00;48.50;;;;;;7710336;23;20463;-66
2021/03/27 10:16:36;;;;;;;1.42;1.30;;;20.00;48.50;;;;;;7709789;23;20015;-65
2021/03/27 10:19:48;;;;;;;1.73;1.25;;;20.00;48.50;;;;;;7709984;23;20437;-66
2021/03/27 10:23:20;;;;;;;1.10;1.00;;;20.00;48.50;;;;;;7709928;23;20392;-66
2021/03/27 10:26:53;;;;;;;1.17;1.08;;;20.00;48.50;;;;;;7710271;23;20017;-65
2021/03/27 10:30:31;;;;;;;1.60;1.10;;;20.00;48.50;;;;;;7663594;23;20029;-65
2021/03/27 10:33:43;;;;;;;1.02;0.93;;;20.00;48.50;;;;;;7710616;23;20107;-65
2021/03/27 10:36:48;;;;;;;1.50;1.20;;;20.00;48.50;;;;;;7712588;23;20016;-65
2021/03/27 10:40:02;;;;;;;;;;;20.00;48.50;;;;;;7713119;23;20375;-65
2021/03/27 10:43:42;;;;;;;1.38;1.00;;;20.00;48.50;;;;;;7712839;23;19912;-65
2021/03/27 10:47:06;;;;;;;1.45;1.08;;;20.00;48.50;;;;;;7713136;23;20016;-66
2021/03/27 10:50:21;;;;;;;1.20;1.10;;;20.00;48.50;;;;;;7667645;23;20044;-65
2021/03/27 10:53:30;;;;;;;1.93;1.23;;;20.00;48.60;;;;;;7711848;23;20004;-66
2021/03/27 10:56:58;;;;;;;1.73;1.10;;;20.00;47.60;;;;;;7711755;23;20008;-66
2021/03/27 11:00:24;;;;;;;1.10;0.90;;;20.00;48.40;;;;;;7710857;23;20006;-66
2021/03/27 11:03:59;;;;;;;1.42;1.17;;;20.00;48.30;;;;;;7710975;23;20016;-65
2021/03/27 11:07:34;;;;;;;1.73;1.00;;;20.00;48.30;;;;;;7711412;23;20008;-65
2021/03/27 11:10:52;;;;;;;1.23;1.05;;;20.00;48.30;;;;;;7710781;23;20004;-66
2021/03/27 11:14:18;;;;;;;1.42;0.70;;;20.00;48.40;;;;;;7711279;23;20055;-65
2021/03/27 11:17:40;;;;;;;1.15;1.00;;;20.00;48.40;;;;;;7695977;23;20008;-65
2021/03/27 11:21:08;;;;;;;1.02;0.90;;;20.00;48.50;;;;;;7707494;23;20019;-65
2021/03/27 11:24:46;;;;;;;3.60;1.00;;;20.00;48.50;;;;;;7708163;23;20032;-65
2021/03/27 11:27:58;;;;;;;0.90;0.80;;;20.00;48.50;;;;;;7697311;23;20058;-66
2021/03/27 11:30:58;;;;;;;3.00;1.00;;;20.00;48.50;;;;;;7709537;23;20008;-67
2021/03/27 11:34:36;;;;;;;29.33;2.92;;;20.00;48.60;;;;;;7709336;23;20014;-66
2021/03/27 11:38:22;;;;;;;9.32;1.00;;;20.10;48.40;;;;;;7709548;23;20015;-66
2021/03/27 11:41:40;;;;;;;2.27;1.20;;;20.10;48.30;;;;;;7667766;23;20004;-66
2021/03/27 11:44:51;;;;;;;3.35;1.38;;;20.10;48.20;;;;;;7709443;23;20035;-66
2021/03/27 11:48:25;;;;;;;10.35;1.20;;;20.10;48.30;;;;;;7707840;23;20020;-65
2021/03/27 11:52:04;;;;;;;3.45;1.15;;;20.10;48.30;;;;;;7709406;23;20031;-65
2021/03/27 11:55:25;;;;;;;1.08;0.75;;;20.10;48.40;;;;;;7681498;23;20030;-65
2021/03/27 11:59:42;;;;;;;4.28;1.10;;;20.10;48.50;;;;;;7708771;23;20036;-65
2021/03/27 12:02:22;;;;;;;1.48;0.82;;;20.10;48.40;;;;;;7708551;23;20103;-65
2021/03/27 12:05:44;;;;;;;2.97;1.10;;;20.00;48.30;;;;;;7707484;23;20071;-65
2021/03/27 12:08:55;;;;;;;3.47;1.10;;;20.00;48.40;;;;;;7708827;23;20091;-66
2021/03/27 12:12:14;;;;;;;2.60;1.05;;;20.10;48.50;;;;;;7707330;23;20228;-66
2021/03/27 12:15:40;;;;;;;3.10;0.63;;;20.10;48.50;;;;;;7709390;23;20318;-65
2021/03/27 12:18:56;;;;;;;4.05;1.20;;;20.00;48.40;;;;;;7666642;23;20012;-65
2021/03/27 12:22:05;;;;;;;7.50;1.00;;;20.00;48.40;;;;;;7708100;23;20016;-65
2021/03/27 12:25:12;;;;;;;2.80;1.13;;;20.00;48.40;;;;;;7708075;23;20067;-65
2021/03/27 12:28:25;;;;;;;1.45;1.00;;;20.00;48.40;;;;;;7708511;23;20012;-65
2021/03/27 12:31:48;;;;;;;1.13;0.77;;;20.00;48.40;;;;;;7708512;23;20005;-65
2021/03/27 12:35:18;;;;;;;1.50;0.93;;;20.00;48.40;;;;;;7708582;23;20020;-65
2021/03/27 12:38:58;;;;;;;5.93;1.25;;;20.00;48.40;;;;;;7706487;23;20013;-65
2021/03/27 12:42:16;;;;;;;2.10;0.80;;;20.10;48.50;;;;;;7674223;23;20040;-65
2021/03/27 12:45:25;;;;;;;1.27;0.68;;;20.10;48.50;;;;;;7708446;23;20005;-65
2021/03/27 12:48:52;;;;;;;1.10;0.80;;;20.10;48.50;;;;;;7707286;23;20025;-65
2021/03/27 12:52:20;;;;;;;1.20;0.80;;;20.00;48.40;;;;;;7708450;23;20071;-65
2021/03/27 12:55:49;;;;;;;1.23;0.80;;;20.00;49.10;;;;;;7708107;23;20012;-66
2021/03/27 12:58:55;;;;;;;1.05;0.80;;;20.00;48.50;;;;;;7708026;23;20556;-66
2021/03/27 13:02:23;;;;;;;1.70;0.93;;;20.00;48.50;;;;;;7707391;23;20167;-66
2021/03/27 13:05:35;;;;;;;1.45;0.80;;;20.00;48.50;;;;;;7707754;23;20011;-67
2021/03/27 13:08:39;;;;;;;4.53;0.98;;;20.00;48.50;;;;;;7708280;23;20391;-65
2021/03/27 13:11:54;;;;;;;3.50;1.10;;;20.00;49.10;;;;;;7707822;23;20035;-65
2021/03/27 13:15:19;;;;;;;1.38;0.68;;;20.00;47.90;;;;;;7707265;23;20035;-66
2021/03/27 13:18:48;;;;;;;4.43;1.20;;;19.90;47.20;;;;;;7708103;23;20043;-66
2021/03/27 13:22:17;;;;;;;4.50;1.27;;;19.90;46.60;;;;;;7708249;23;20013;-66
2021/03/27 13:25:33;;;;;;;3.95;1.10;;;19.90;46.00;;;;;;7707350;23;20514;-64
2021/03/27 13:28:45;;;;;;;5.50;1.10;;;19.90;45.50;;;;;;7708100;23;20058;-66
2021/03/27 13:31:52;;;;;;;1.70;0.70;;;19.90;45.40;;;;;;7708207;23;20000;-65
2021/03/27 13:35:15;;;;;;;1.85;1.13;;;19.80;44.70;;;;;;7707784;23;20064;-65
2021/03/27 13:38:48;;;;;;;6.57;1.40;;;19.80;45.90;;;;;;7707733;23;20009;-65
2021/03/27 13:42:04;;;;;;;1.77;0.95;;;19.70;47.00;;;;;;7706745;23;20019;-65
2021/03/27 13:45:26;;;;;;;3.25;1.00;;;19.70;46.90;;;;;;7707488;23;20050;-65
2021/03/27 13:48:30;;;;;;;2.20;1.00;;;19.70;45.90;;;;;;7708249;23;20474;-65
2021/03/27 13:52:03;;;;;;;1.75;0.80;;;19.60;46.00;;;;;;7706474;23;20009;-64
2021/03/27 13:55:15;;;;;;;1.85;0.73;;;19.60;46.40;;;;;;7687701;23;20076;-64
2021/03/27 13:58:25;;;;;;;7.65;0.77;;;19.60;46.10;;;;;;7707729;23;20554;-65
2021/03/27 14:01:36;;;;;;;1.20;0.75;;;19.50;45.80;;;;;;7707331;23;20008;-65
2021/03/27 14:04:45;;;;;;;1.70;1.00;;;19.50;45.60;;;;;;7706959;23;20082;-65
2021/03/27 14:07:54;;;;;;;4.63;0.90;;;19.50;45.20;;;;;;7708128;23;20329;-65
2021/03/27 14:11:05;;;;;;;1.95;0.70;;;19.50;45.30;;;;;;7708673;23;20067;-65
2021/03/27 14:14:11;;;;;;;3.63;0.60;;;19.50;44.60;;;;;;7710835;23;20005;-64
2021/03/27 14:17:34;;;;;;;1.48;0.77;;;19.50;44.20;;;;;;7709255;23;20346;-65
2021/03/27 14:20:43;;;;;;;2.50;0.80;;;19.50;44.50;;;;;;7710001;23;20460;-65
2021/03/27 14:24:06;;;;;;;1.17;0.70;;;19.50;44.60;;;;;;7709930;23;20024;-65
2021/03/27 14:27:32;;;;;;;1.92;0.70;;;19.50;44.70;;;;;;7708774;23;20429;-65
2021/03/27 14:30:48;;;;;;;2.60;0.80;;;19.50;43.30;;;;;;7709995;23;20008;-65
2021/03/27 14:34:17;;;;;;;1.17;0.70;;;19.50;43.70;;;;;;7709126;23;20391;-65
2021/03/27 14:37:54;;;;;;;1.65;0.60;;;19.50;43.60;;;;;;7709893;23;20327;-65
2021/03/27 14:41:19;;;;;;;3.60;0.50;;;19.50;42.60;;;;;;7704324;23;20011;-65
2021/03/27 14:44:29;;;;;;;2.35;0.57;;;19.50;42.00;;;;;;7709819;23;20455;-64
2021/03/27 14:47:55;;;;;;;1.77;0.70;;;19.50;42.00;;;;;;7709783;23;20395;-64
2021/03/27 14:51:11;;;;;;;1.63;0.80;;;19.60;41.60;;;;;;7709480;23;20368;-65
2021/03/27 14:54:34;;;;;;;6.57;0.93;;;19.60;43.30;;;;;;7709135;23;20240;-64
2021/03/27 14:57:51;;;;;;;9.07;1.10;;;19.60;41.20;;;;;;7708059;23;20014;-64
2021/03/27 15:00:52;;;;;;;2.65;1.17;;;19.60;40.90;;;;;;7709444;23;20455;-64
2021/03/27 15:03:59;;;;;;;3.35;0.90;;;19.60;40.60;;;;;;7709755;23;20067;-61
2021/03/27 15:07:19;;;;;;;2.13;1.02;;;19.60;40.90;;;;;;7709460;23;20352;-64
2021/03/27 15:10:38;;;;;;;4.28;1.00;;;19.60;41.90;;;;;;7709961;23;20005;-64
2021/03/27 15:14:09;;;;;;;5.40;0.70;;;19.60;41.70;;;;;;7709490;23;20015;-64
2021/03/27 15:17:36;;;;;;;4.65;1.13;;;19.60;42.10;;;;;;7708707;23;20096;-64
2021/03/27 15:20:39;;;;;;;2.40;0.95;;;19.70;42.40;;;;;;7709399;23;20634;-64
2021/03/27 15:23:59;;;;;;;3.65;1.20;;;19.70;42.70;;;;;;7708826;23;20008;-64
2021/03/27 15:27:18;;;;;;;6.50;0.85;;;19.70;42.90;;;;;;7709482;23;20001;-64
2021/03/27 15:30:34;;;;;;;3.22;0.70;;;19.70;43.00;;;;;;7708803;23;20008;-64
2021/03/27 15:34:07;;;;;;;6.55;1.23;;;19.70;43.30;;;;;;7709092;23;20011;-69
2021/03/27 15:37:21;;;;;;;2.17;0.80;;;19.80;43.60;;;;;;7709747;23;20428;-65
2021/03/27 15:40:35;;;;;;;5.68;1.20;;;19.80;42.70;;;;;;7709640;23;20013;-65
2021/03/27 15:43:35;;;;;;;5.85;1.00;;;19.80;42.80;;;;;;7708550;23;20012;-64
2021/03/27 15:46:47;;;;;;;4.47;0.90;;;19.80;42.70;;;;;;7708743;23;20058;-65
2021/03/27 15:49:59;;;;;;;7.82;0.95;;;19.80;43.30;;;;;;7709508;23;20020;-65
2021/03/27 15:53:03;;;;;;;2.00;0.82;;;19.80;43.70;;;;;;7708977;23;20007;-65
2021/03/27 15:56:20;;;;;;;2.40;0.87;;;19.80;43.20;;;;;;7708208;23;20016;-65
2021/03/27 15:59:35;;;;;;;9.75;1.00;;;19.80;43.00;;;;;;7709374;23;20009;-64
2021/03/27 16:02:41;;;;;;;;;;;19.80;43.20;;;;;;7709288;23;20471;-65
2021/03/27 16:05:55;;;;;;;2.88;0.93;;;19.80;43.20;;;;;;7708595;23;19953;-64
2021/03/27 16:09:02;;;;;;;2.30;0.90;;;19.80;43.30;;;;;;7708981;23;20459;-64
2021/03/27 16:12:31;;;;;;;2.88;0.50;;;19.80;44.10;;;;;;7708339;23;20011;-64
2021/03/27 16:15:53;;;;;;;6.38;0.90;;;19.90;44.30;;;;;;7708958;23;20502;-64
2021/03/27 16:19:12;;;;;;;2.17;0.70;;;19.90;44.40;;;;;;7708075;23;20014;-64
2021/03/27 16:22:34;;;;;;;2.15;0.77;;;19.90;44.00;;;;;;7708396;23;20368;-63
2021/03/27 16:26:06;;;;;;;11.20;1.00;;;19.90;44.80;;;;;;7709513;23;20004;-65
2021/03/27 16:29:15;;;;;;;8.13;1.58;;;19.70;45.60;;;;;;7708888;23;20331;-65
2021/03/27 16:32:48;;;;;;;7.93;1.15;;;19.70;45.80;;;;;;7706910;23;20151;-64
2021/03/27 16:35:59;;;;;;;5.75;1.00;;;19.70;45.90;;;;;;7708972;23;20436;-66
2021/03/27 16:39:16;;;;;;;9.50;0.90;;;19.80;45.80;;;;;;7708890;23;20004;-64
2021/03/27 16:42:41;;;;;;;2.35;0.90;;;19.90;45.90;;;;;;7707879;23;20298;-63
2021/03/27 16:46:09;;;;;;;8.18;1.00;;;20.00;45.40;;;;;;7708532;23;20091;-64
2021/03/27 16:49:24;;;;;;;6.45;1.10;;;20.00;44.80;;;;;;7708594;23;20385;-64
2021/03/27 16:52:37;;;;;;;;;;;20.00;45.00;;;;;;7708995;23;20343;-65
2021/03/27 16:55:56;;;;;;;5.43;1.00;;;19.90;43.90;;;;;;7707721;23;19937;-65
2021/03/27 16:59:24;;;;;;;8.13;1.25;;;19.90;43.00;;;;;;7707763;23;20004;-64
2021/03/27 17:03:00;;;;;;;3.08;1.13;;;19.90;42.80;;;;;;7708626;23;20440;-65
2021/03/27 17:06:03;;;;;;;5.22;0.80;;;20.00;43.10;;;;;;7662991;23;20012;-64
2021/03/27 17:09:04;;;;;;;3.42;0.80;;;20.00;43.30;;;;;;7707792;23;20000;-64
2021/03/27 17:12:34;;;;;;;2.33;1.13;;;20.00;43.30;;;;;;7708093;23;20365;-65
2021/03/27 17:15:55;;;;;;;4.13;1.10;;;20.00;44.00;;;;;;7708649;23;20055;-64
2021/03/27 17:19:11;;;;;;;3.10;1.38;;;20.00;43.20;;;;;;7708072;23;20000;-65
2021/03/27 17:22:26;;;;;;;4.53;1.30;;;20.00;43.40;;;;;;7707186;23;20020;-64